Time;durP1;ratioP1;P1;durP2;ratioP2;P2;SDS_P1;SDS_P2;PMS_P1;PMS_P2;Temp;Humidity;BMP_temperature;BMP_pressure;BME280_temperature;BME280_humidity;BME280_pressure;Samples;Min_cycle;Max_cycle;Signal;HPM_P1;HPM_P2
2022/05/25 00:01:49;;;;;;;2.70;1.42;;;;;;;12.50;69.44;100206.13;5055438;28;20127;-78
2022/05/25 00:04:18;;;;;;;4.10;1.40;;;;;;;12.49;69.76;100204.38;5068161;28;20032;-77
2022/05/25 00:06:44;;;;;;;3.70;2.03;;;;;;;12.38;70.40;100206.38;5088446;28;20032;-77
2022/05/25 00:09:09;;;;;;;6.68;2.90;;;;;;;12.35;70.71;100206.41;5081568;28;20042;-77
2022/05/25 00:11:35;;;;;;;6.68;2.78;;;;;;;12.35;70.39;100205.56;5085326;28;20036;-78
2022/05/25 00:14:01;;;;;;;4.25;2.50;;;;;;;12.33;70.34;100215.28;5086841;28;20032;-78
2022/05/25 00:16:26;;;;;;;4.03;2.17;;;;;;;12.31;70.35;100215.31;5086758;28;20048;-77
2022/05/25 00:21:36;;;;;;;5.78;3.65;;;;;;;12.26;69.72;100210.13;5083566;28;20041;-77
2022/05/25 00:24:01;;;;;;;4.50;2.92;;;;;;;12.20;69.34;100222.56;5082151;28;20032;-77
2022/05/25 00:26:27;;;;;;;5.60;3.42;;;;;;;12.17;70.39;100222.63;5087940;28;20082;-77
2022/05/25 00:28:52;;;;;;;5.57;3.28;;;;;;;12.19;70.77;100219.06;5066526;28;20075;-77
2022/05/25 00:31:17;;;;;;;5.95;3.50;;;;;;;12.16;70.98;100229.69;5087273;28;20024;-78
2022/05/25 00:33:43;;;;;;;6.30;3.40;;;;;;;12.12;71.12;100235.06;5085582;28;20078;-77
2022/05/25 00:36:08;;;;;;;6.90;3.63;;;;;;;12.06;71.32;100231.63;5086119;28;20118;-77
2022/05/25 00:38:33;;;;;;;5.22;3.38;;;;;;;11.96;70.29;100237.97;5068553;28;20063;-77
2022/05/25 00:40:59;;;;;;;5.57;3.63;;;;;;;11.89;70.38;100246.03;5087642;28;20044;-77
2022/05/25 00:43:24;;;;;;;5.30;3.67;;;;;;;11.87;71.11;100247.81;5091078;28;20035;-77
2022/05/25 00:45:53;;;;;;;5.97;3.20;;;;;;;11.90;70.90;100239.84;5087010;28;20040;-76
2022/05/25 00:48:23;;;;;;;5.20;3.42;;;;;;;11.96;70.93;100247.69;5088595;28;20024;-77
2022/05/25 00:53:33;;;;;;;3.80;1.90;;;;;;;11.92;72.91;100248.59;5077327;28;20036;-77
2022/05/25 00:56:00;;;;;;;6.78;2.50;;;;;;;11.81;73.30;100252.25;5087996;28;20017;-77
2022/05/25 00:58:26;;;;;;;3.97;2.28;;;;;;;11.77;72.53;100255.00;5087124;28;20112;-77
2022/05/25 01:00:51;;;;;;;4.65;2.53;;;;;;;11.81;72.66;100261.97;5088067;28;20039;-77
2022/05/25 01:03:19;;;;;;;7.05;2.90;;;;;;;11.86;72.29;100268.09;5084311;28;20402;-77
2022/05/25 01:06:03;;;;;;;4.88;2.80;;;;;;;11.88;71.67;100268.94;5086174;28;20036;-76
2022/05/25 01:08:53;;;;;;;4.82;2.30;;;;;;;11.87;72.49;100261.94;5080678;28;20032;-76
2022/05/25 01:11:28;;;;;;;4.05;2.30;;;;;;;11.76;73.39;100255.88;5082220;28;20157;-76
2022/05/25 01:14:06;;;;;;;4.90;2.50;;;;;;;11.68;73.97;100258.63;5068775;28;20419;-76
2022/05/25 01:16:37;;;;;;;5.30;2.67;;;;;;;11.62;74.14;100266.66;5083372;28;20098;-77
2022/05/25 01:19:10;;;;;;;5.03;2.97;;;;;;;11.59;74.21;100267.59;5086364;28;20441;-77
2022/05/25 01:22:00;;;;;;;3.92;2.40;;;;;;;11.56;74.29;100272.91;5087415;28;20032;-77
2022/05/25 01:24:30;;;;;;;3.67;2.35;;;;;;;11.56;74.42;100264.13;5029241;28;20539;-77
2022/05/25 01:27:20;;;;;;;5.80;3.45;;;;;;;11.57;74.00;100273.78;5086933;28;20038;-77
2022/05/25 01:30:04;;;;;;;4.03;1.77;;;;;;;11.57;74.89;100273.78;5084684;28;20143;-76
2022/05/25 01:32:49;;;;;;;4.38;1.80;;;;;;;11.56;74.97;100283.50;5049234;28;20024;-77
2022/05/25 01:35:31;;;;;;;6.22;1.80;;;;;;;11.60;74.91;100273.75;5063667;28;20182;-77
2022/05/25 01:38:23;;;;;;;3.95;1.60;;;;;;;11.73;75.45;100269.16;5084914;28;20557;-77
2022/05/25 01:40:56;;;;;;;4.35;1.65;;;;;;;11.82;74.18;100272.53;5049051;28;20040;-77
2022/05/25 01:43:32;;;;;;;3.85;1.65;;;;;;;11.88;73.74;100276.03;5086032;28;20032;-77
2022/05/25 01:46:04;;;;;;;2.78;1.60;;;;;;;11.92;73.36;100264.47;5088038;28;20032;-77
2022/05/25 01:48:34;;;;;;;2.70;1.48;;;;;;;11.90;72.91;100271.59;5081513;28;20075;-77
2022/05/25 01:51:06;;;;;;;3.08;1.52;;;;;;;11.90;73.80;100279.53;5085104;28;20039;-77
2022/05/25 01:53:37;;;;;;;4.15;1.33;;;;;;;11.90;73.63;100275.09;5084843;28;20028;-77
2022/05/25 01:56:06;;;;;;;3.75;1.55;;;;;;;11.92;74.23;100275.94;5084956;28;20048;-76
2022/05/25 01:58:36;;;;;;;4.07;1.60;;;;;;;11.97;73.69;100286.44;5052382;28;20038;-77
2022/05/25 02:01:05;;;;;;;3.75;1.60;;;;;;;12.03;73.43;100284.59;5090468;28;20039;-77
2022/05/25 02:06:33;;;;;;;4.28;1.40;;;;;;;12.07;73.31;100280.09;5086398;28;20154;-77
2022/05/25 02:09:26;;;;;;;2.97;1.30;;;;;;;12.05;73.21;100281.91;5068708;28;20036;-77
2022/05/25 02:12:11;;;;;;;2.95;1.10;;;;;;;12.13;72.34;100277.38;5087652;28;20097;-76
2022/05/25 02:14:56;;;;;;;3.45;1.30;;;;;;;12.18;71.89;100275.53;5070657;28;20036;-77
2022/05/25 02:17:43;;;;;;;3.15;1.33;;;;;;;12.12;72.21;100283.56;5067754;28;20042;-77
2022/05/25 02:20:33;;;;;;;3.13;1.30;;;;;;;12.15;72.63;100278.19;5087222;28;20032;-77
2022/05/25 02:23:08;;;;;;;2.25;1.08;;;;;;;12.25;72.16;100277.16;5083266;28;20043;-77
2022/05/25 02:25:45;;;;;;;4.53;1.48;;;;;;;12.33;71.71;100271.72;5071525;28;20036;-77
2022/05/25 02:28:18;;;;;;;3.72;1.13;;;;;;;12.44;71.51;100282.13;5086601;28;20036;-77
2022/05/25 02:30:49;;;;;;;2.40;1.10;;;;;;;12.54;71.17;100270.47;5087093;28;20032;-77
2022/05/25 02:33:27;;;;;;;4.13;1.30;;;;;;;12.57;70.60;100275.69;5086169;28;20031;-77
2022/05/25 02:35:55;;;;;;;2.08;0.85;;;;;;;12.59;70.51;100279.19;5070521;28;20281;-76
2022/05/25 02:38:21;;;;;;;3.58;1.30;;;;;;;12.62;69.84;100268.56;5083141;28;20028;-77
2022/05/25 02:40:46;;;;;;;2.28;1.08;;;;;;;12.67;69.61;100276.41;5089795;28;20398;-77
2022/05/25 02:43:11;;;;;;;2.60;1.10;;;;;;;12.70;69.06;100271.91;5089191;28;20075;-77
2022/05/25 02:45:38;;;;;;;2.92;1.25;;;;;;;12.70;69.91;100274.56;5057200;28;20036;-76
2022/05/25 02:48:04;;;;;;;3.05;0.93;;;;;;;12.66;69.83;100264.09;5088531;28;20025;-77
2022/05/25 02:50:29;;;;;;;3.10;1.00;;;;;;;12.50;70.18;100272.31;5091174;28;20500;-76
2022/05/25 02:52:56;;;;;;;1.80;1.00;;;;;;;12.51;70.03;100270.53;5087201;28;20433;-76
2022/05/25 02:55:21;;;;;;;2.00;0.90;;;;;;;12.60;69.49;100269.47;5089038;28;20051;-76
2022/05/25 02:57:46;;;;;;;4.57;1.08;;;;;;;12.70;69.38;100274.56;5070950;28;20546;-77
2022/05/25 03:00:12;;;;;;;6.63;0.90;;;;;;;12.80;69.00;100271.75;5087955;28;20048;-76
2022/05/25 03:02:39;;;;;;;4.90;1.48;;;;;;;12.84;68.20;100270.81;5067436;28;20032;-77
2022/05/25 03:05:05;;;;;;;3.65;1.90;;;;;;;12.85;68.22;100267.25;5085836;28;20028;-76
2022/05/25 03:07:31;;;;;;;3.67;1.13;;;;;;;12.89;68.51;100267.16;5088703;28;20037;-76
2022/05/25 03:09:56;;;;;;;3.08;1.27;;;;;;;12.90;69.22;100268.03;5087251;28;20406;-77
2022/05/25 03:12:21;;;;;;;4.72;2.03;;;;;;;12.93;69.52;100267.97;5087365;28;20074;-76
2022/05/25 03:14:47;;;;;;;3.90;1.80;;;;;;;12.86;69.65;100271.63;5070884;28;20047;-76
2022/05/25 03:17:14;;;;;;;2.33;1.27;;;;;;;12.82;69.51;100277.91;5087198;28;20043;-77
2022/05/25 03:19:50;;;;;;;1.80;0.90;;;;;;;12.80;69.31;100285.00;5083037;28;20159;-77
2022/05/25 03:22:15;;;;;;;4.40;1.15;;;;;;;12.72;69.55;100277.19;5091023;28;20177;-77
2022/05/25 03:24:40;;;;;;;3.83;1.40;;;;;;;12.66;69.93;100275.53;5074542;28;20522;-77
2022/05/25 03:27:06;;;;;;;4.43;1.10;;;;;;;12.69;69.31;100279.91;5088600;28;20051;-77
2022/05/25 03:29:32;;;;;;;3.40;1.10;;;;;;;12.76;69.44;100285.94;5087013;28;20032;-76
2022/05/25 03:31:58;;;;;;;3.42;1.38;;;;;;;12.81;69.25;100289.38;5087993;28;20035;-77
2022/05/25 03:34:23;;;;;;;3.60;1.60;;;;;;;12.90;68.61;100295.38;5089990;28;20387;-76
2022/05/25 03:36:48;;;;;;;3.22;1.40;;;;;;;12.99;69.23;100301.41;5055187;28;20570;-77
2022/05/25 03:39:13;;;;;;;3.30;1.35;;;;;;;13.02;69.05;100314.59;5089426;28;20060;-76
2022/05/25 03:41:39;;;;;;;2.38;1.30;;;;;;;13.00;68.99;100311.97;5087133;28;20032;-78
2022/05/25 03:44:05;;;;;;;3.80;1.55;;;;;;;12.99;68.91;100318.16;5072021;28;20602;-77
2022/05/25 03:46:30;;;;;;;3.90;1.67;;;;;;;12.92;69.83;100317.44;5072985;28;20047;-77
2022/05/25 03:48:56;;;;;;;5.13;1.35;;;;;;;12.85;69.91;100317.56;5095082;28;20039;-78
2022/05/25 03:51:21;;;;;;;2.30;1.10;;;;;;;12.88;69.74;100323.66;5092514;28;20039;-78
2022/05/25 03:53:49;;;;;;;3.15;1.10;;;;;;;12.92;69.04;100333.31;5091682;28;20099;-78
2022/05/25 03:56:15;;;;;;;4.15;1.30;;;;;;;12.95;68.70;100327.09;5073920;28;20115;-78
2022/05/25 03:58:40;;;;;;;4.90;1.40;;;;;;;12.99;68.14;100334.06;5094702;28;20059;-77
2022/05/25 04:01:06;;;;;;;4.75;1.50;;;;;;;13.11;67.38;100328.53;5055690;28;20040;-77
2022/05/25 04:03:31;;;;;;;3.58;1.60;;;;;;;13.26;67.44;100330.03;5090559;28;20410;-77
2022/05/25 04:05:56;;;;;;;2.33;1.30;;;;;;;13.43;66.88;100332.34;5088756;28;20040;-79
2022/05/25 04:08:22;;;;;;;3.25;1.20;;;;;;;13.54;66.24;100329.44;5066116;28;20036;-78
2022/05/25 04:10:47;;;;;;;2.90;1.33;;;;;;;13.69;66.49;100330.91;5086310;28;20090;-78
2022/05/25 04:13:12;;;;;;;4.13;1.38;;;;;;;13.74;66.05;100327.25;5083680;28;20066;-79
2022/05/25 04:15:38;;;;;;;2.92;1.40;;;;;;;13.87;65.38;100327.84;5060343;28;20032;-75
2022/05/25 04:18:04;;;;;;;3.63;1.08;;;;;;;13.98;65.22;100335.53;5085683;28;20046;-76
2022/05/25 04:20:31;;;;;;;2.63;0.80;;;;;;;14.07;65.19;100338.00;5086458;28;20032;-78
2022/05/25 04:22:56;;;;;;;3.92;1.30;;;;;;;14.10;65.17;100334.41;5091260;28;20056;-78
2022/05/25 04:25:24;;;;;;;7.63;4.18;;;;;;;14.21;65.03;100332.34;5089386;28;20380;-78
2022/05/25 04:27:53;;;;;;;5.35;2.13;;;;;;;14.28;64.34;100330.41;5092605;28;20036;-78
2022/05/25 04:30:23;;;;;;;1.70;0.93;;;;;;;14.26;63.90;100343.72;5082270;28;20028;-77
2022/05/25 04:32:48;;;;;;;2.65;1.10;;;;;;;14.02;64.56;100348.72;5088390;28;20035;-78
2022/05/25 04:35:15;;;;;;;3.20;1.17;;;;;;;14.06;64.47;100348.63;5086265;28;20367;-77
2022/05/25 04:37:50;;;;;;;5.65;1.65;;;;;;;14.07;64.10;100355.69;5089115;28;20403;-77
2022/05/25 04:40:31;;;;;;;4.20;1.30;;;;;;;14.07;64.09;100353.03;5075585;28;20035;-78
2022/05/25 04:42:58;;;;;;;2.47;1.13;;;;;;;14.07;64.66;100359.22;5088618;28;20510;-77
2022/05/25 04:45:28;;;;;;;3.72;1.20;;;;;;;14.09;64.59;100361.81;5091132;28;20077;-78
2022/05/25 04:47:58;;;;;;;3.25;1.30;;;;;;;14.13;64.63;100361.72;5090669;28;20067;-78
2022/05/25 04:50:26;;;;;;;3.15;1.20;;;;;;;14.15;65.19;100359.91;5087273;28;20502;-78
2022/05/25 04:52:53;;;;;;;4.32;1.45;;;;;;;14.14;64.98;100362.59;5070452;28;20036;-79
2022/05/25 04:58:03;;;;;;;3.78;1.20;;;;;;;14.15;65.16;100367.00;5085496;28;20498;-78
2022/05/25 05:00:29;;;;;;;3.63;1.67;;;;;;;14.30;64.82;100376.38;5086751;28;20019;-77
2022/05/25 05:02:54;;;;;;;3.72;1.70;;;;;;;14.46;64.38;100375.09;5085498;28;20469;-78
2022/05/25 05:05:20;;;;;;;3.83;2.03;;;;;;;14.55;64.11;100369.59;5071193;28;20680;-78
2022/05/25 05:07:46;;;;;;;5.22;1.60;;;;;;;14.72;63.95;100370.94;5089859;28;20058;-78
2022/05/25 05:10:12;;;;;;;4.38;1.92;;;;;;;14.81;63.13;100374.25;5069635;28;20072;-78
2022/05/25 05:12:39;;;;;;;2.83;1.10;;;;;;;14.97;63.04;100371.19;5089741;28;20035;-78
2022/05/25 05:15:05;;;;;;;4.20;1.23;;;;;;;15.05;63.22;100379.81;5088669;28;20043;-77
2022/05/25 05:17:30;;;;;;;4.45;1.27;;;;;;;15.04;62.55;100372.78;5088124;28;20036;-78
2022/05/25 05:20:15;;;;;;;4.00;1.25;;;;;;;15.05;62.80;100377.16;5070487;28;20029;-78
2022/05/25 05:22:40;;;;;;;4.65;1.70;;;;;;;15.08;62.90;100385.91;5070207;28;20055;-78
2022/05/25 05:25:07;;;;;;;5.00;1.42;;;;;;;15.13;62.30;100385.78;5068503;28;20060;-78
2022/05/25 05:27:33;;;;;;;4.47;1.40;;;;;;;15.21;62.44;100393.56;5092040;28;20036;-78
2022/05/25 05:30:02;;;;;;;3.80;1.30;;;;;;;15.27;62.10;100388.06;5087353;28;20044;-78
2022/05/25 05:32:29;;;;;;;3.17;1.35;;;;;;;15.37;61.76;100381.56;5088395;28;20032;-78
2022/05/25 05:34:55;;;;;;;3.15;1.38;;;;;;;15.47;61.63;100387.50;5089326;28;20040;-78
2022/05/25 05:37:30;;;;;;;3.38;1.20;;;;;;;15.54;61.75;100389.09;5072906;28;20040;-78
2022/05/25 05:39:57;;;;;;;3.63;1.70;;;;;;;15.34;61.96;100402.94;5034966;28;20024;-78
2022/05/25 05:42:24;;;;;;;2.63;1.30;;;;;;;15.34;61.65;100405.59;5089310;28;20036;-78
2022/05/25 05:44:54;;;;;;;5.97;1.50;;;;;;;15.30;61.48;100404.81;5081097;28;20502;-78
2022/05/25 05:47:25;;;;;;;2.63;1.58;;;;;;;15.21;62.00;100410.38;5061468;28;20692;-78
2022/05/25 05:49:50;;;;;;;2.45;1.33;;;;;;;15.30;61.75;100411.91;5088482;28;20032;-78
2022/05/25 05:52:16;;;;;;;6.00;1.73;;;;;;;15.38;62.14;100419.66;5087927;28;20487;-77
2022/05/25 05:54:43;;;;;;;3.67;1.70;;;;;;;15.34;62.25;100421.56;5085154;28;20040;-78
2022/05/25 05:59:50;;;;;;;5.82;1.50;;;;;;;15.37;62.29;100428.56;5103958;22;20056;-77
2022/05/25 06:02:16;;;;;;;4.28;1.60;;;;;;;15.34;62.10;100425.09;5048794;28;20053;-78
2022/05/25 06:04:41;;;;;;;5.43;2.15;;;;;;;15.41;61.87;100420.47;5046229;28;20065;-77
2022/05/25 06:07:07;;;;;;;3.75;1.80;;;;;;;15.52;61.93;100418.38;5045510;28;20109;-78
2022/05/25 06:09:32;;;;;;;5.65;2.10;;;;;;;15.76;61.40;100421.28;5134660;22;20392;-78
2022/05/25 06:11:57;;;;;;;4.47;2.20;;;;;;;15.89;60.19;100416.47;5056846;28;20032;-78
2022/05/25 06:14:23;;;;;;;4.85;2.00;;;;;;;15.89;60.09;100421.81;5069312;28;20044;-78
2022/05/25 06:19:37;;;;;;;5.40;3.17;;;;;;;15.90;59.30;100428.84;5048225;28;20080;-78
2022/05/25 06:22:07;;;;;;;5.30;2.38;;;;;;;15.83;60.38;100432.63;5028267;28;20069;-78
2022/05/25 06:24:40;;;;;;;6.13;2.97;;;;;;;15.96;60.54;100434.00;5045820;28;20510;-78
2022/05/25 06:27:11;;;;;;;4.95;3.00;;;;;;;16.21;59.29;100437.66;5054218;28;20509;-77
2022/05/25 06:29:39;;;;;;;5.05;2.78;;;;;;;16.31;59.23;100434.72;5029174;28;20522;-78
2022/05/25 06:32:07;;;;;;;6.32;3.58;;;;;;;16.36;59.16;100432.78;5048519;28;20577;-77
2022/05/25 06:34:32;;;;;;;7.82;3.53;;;;;;;16.28;59.01;100440.16;5048514;28;20029;-77
2022/05/25 06:36:58;;;;;;;6.25;3.70;;;;;;;16.33;58.46;100443.53;5054476;28;20037;-78
2022/05/25 06:39:23;;;;;;;6.35;3.90;;;;;;;16.43;58.38;100447.66;5045977;28;20033;-78
2022/05/25 06:41:48;;;;;;;6.90;3.20;;;;;;;16.60;58.11;100442.66;5033462;28;20049;-78
2022/05/25 06:44:14;;;;;;;5.60;3.20;;;;;;;16.79;57.54;100442.97;5051349;28;20035;-78
2022/05/25 06:46:39;;;;;;;5.63;3.38;;;;;;;17.12;57.51;100449.88;5029839;28;20079;-78
2022/05/25 06:49:04;;;;;;;4.15;2.65;;;;;;;17.46;56.30;100447.75;5029245;28;20036;-78
2022/05/25 06:51:33;;;;;;;5.10;3.33;;;;;;;17.56;55.71;100456.31;5047640;28;20037;-78
2022/05/25 06:53:59;;;;;;;5.53;3.15;;;;;;;17.68;55.42;100461.19;5046452;28;20038;-76
2022/05/25 06:56:25;;;;;;;4.45;3.08;;;;;;;17.86;54.95;100464.13;5047550;28;20037;-78
2022/05/25 06:58:55;;;;;;;6.95;2.90;;;;;;;17.92;54.42;100466.56;5041016;28;20033;-78
2022/05/25 07:01:23;;;;;;;6.35;3.20;;;;;;;18.13;54.37;100459.53;5052664;28;20380;-78
2022/05/25 07:03:49;;;;;;;5.75;3.40;;;;;;;18.26;53.75;100468.84;5052091;28;20167;-77
2022/05/25 07:06:17;;;;;;;5.28;3.58;;;;;;;18.29;53.26;100466.03;5053005;28;20037;-78
2022/05/25 07:08:43;;;;;;;5.43;3.10;;;;;;;18.25;54.40;100472.44;5044835;28;20049;-78
2022/05/25 07:11:11;;;;;;;7.85;2.85;;;;;;;18.33;53.37;100470.31;5047172;28;20492;-78
2022/05/25 07:13:37;;;;;;;4.82;3.38;;;;;;;18.27;53.39;100481.25;5036930;28;20032;-78
2022/05/25 07:16:05;;;;;;;5.25;3.53;;;;;;;18.18;52.77;100478.94;5049317;28;20028;-78
2022/05/25 07:18:31;;;;;;;5.28;3.42;;;;;;;18.24;53.07;100475.19;5047969;28;20108;-78
2022/05/25 07:21:01;;;;;;;5.57;3.40;;;;;;;18.40;52.79;100481.66;5048269;28;20029;-78
2022/05/25 07:23:27;;;;;;;5.30;3.45;;;;;;;18.71;52.70;100475.09;5026139;28;20454;-78
2022/05/25 07:25:52;;;;;;;5.03;3.40;;;;;;;18.87;51.78;100475.38;5050720;28;20032;-78
2022/05/25 07:28:17;;;;;;;4.75;3.40;;;;;;;18.93;50.65;100485.78;5034870;28;20041;-77
2022/05/25 07:30:43;;;;;;;6.68;3.58;;;;;;;19.08;50.61;100490.50;5050483;28;20037;-78
2022/05/25 07:33:09;;;;;;;6.50;3.58;;;;;;;19.13;50.66;100483.16;5053496;28;20116;-78
2022/05/25 07:35:36;;;;;;;5.40;4.07;;;;;;;19.20;49.66;100487.31;5016713;28;20037;-78
2022/05/25 07:38:01;;;;;;;5.05;2.95;;;;;;;19.21;49.94;100485.50;5034565;28;20087;-78
2022/05/25 07:40:31;;;;;;;6.07;3.33;;;;;;;19.23;49.33;100484.50;5052575;28;20045;-78
2022/05/25 07:43:01;;;;;;;4.80;3.60;;;;;;;19.23;49.01;100489.88;5052197;28;20055;-78
2022/05/25 07:45:27;;;;;;;4.50;3.30;;;;;;;19.27;49.43;100499.47;5053097;28;20029;-78
2022/05/25 07:47:54;;;;;;;6.38;3.30;;;;;;;19.32;49.22;100493.09;5033201;28;20044;-78
2022/05/25 07:50:21;;;;;;;8.52;3.88;;;;;;;19.22;48.57;100495.28;5052159;28;20028;-78
2022/05/25 07:52:46;;;;;;;6.40;3.83;;;;;;;19.37;48.87;100496.44;5058419;28;20029;-78
2022/05/25 07:55:12;;;;;;;5.68;3.70;;;;;;;19.62;48.50;100493.53;5049432;28;20043;-78
2022/05/25 07:57:38;;;;;;;6.85;4.03;;;;;;;19.75;47.88;100496.56;5047231;28;20045;-78
2022/05/25 08:00:05;;;;;;;7.93;4.10;;;;;;;19.57;48.08;100496.44;5052212;28;20136;-78
2022/05/25 08:08:15;;;;;;;7.45;4.15;;;;;;;19.76;47.51;100509.03;5049818;28;20039;-77
2022/05/25 08:10:47;;;;;;;5.68;3.40;;;;;;;20.07;47.59;100509.41;5033413;28;20476;-78
2022/05/25 08:13:17;;;;;;;7.00;3.70;;;;;;;20.08;47.19;100516.47;5051997;28;20036;-78
2022/05/25 08:15:44;;;;;;;4.75;2.90;;;;;;;20.08;45.78;100516.47;5055146;28;20430;-78
2022/05/25 08:18:11;;;;;;;6.82;3.30;;;;;;;19.96;45.36;100516.16;5054296;28;20029;-77
2022/05/25 08:20:36;;;;;;;6.90;3.60;;;;;;;19.97;45.51;100520.59;5051629;28;20037;-78
2022/05/25 08:23:07;;;;;;;5.18;3.22;;;;;;;20.13;45.72;100518.94;5051909;28;20087;-78
2022/05/25 08:25:32;;;;;;;4.88;3.22;;;;;;;20.31;46.23;100515.41;5053501;28;20029;-77
2022/05/25 08:27:57;;;;;;;7.10;4.10;;;;;;;20.30;45.51;100515.47;5045559;28;20194;-78
2022/05/25 08:30:23;;;;;;;6.90;3.90;;;;;;;20.35;45.23;100506.28;5048941;28;20029;-77
2022/05/25 08:32:49;;;;;;;5.85;4.15;;;;;;;20.33;45.27;100515.31;5048762;28;20044;-78
2022/05/25 08:35:16;;;;;;;6.05;3.55;;;;;;;20.11;46.16;100515.47;5037230;28;20509;-78
2022/05/25 08:37:41;;;;;;;6.20;3.80;;;;;;;20.22;45.10;100518.50;5050824;28;20037;-78
2022/05/25 08:40:08;;;;;;;7.20;3.75;;;;;;;19.97;47.00;100516.09;5030985;28;20025;-77
2022/05/25 08:42:58;;;;;;;6.63;2.92;;;;;;;20.26;46.74;100511.22;5030408;28;20381;-78
2022/05/25 08:45:31;;;;;;;4.57;2.40;;;;;;;20.36;46.04;100525.94;5050840;28;20049;-77
2022/05/25 08:47:59;;;;;;;6.15;3.15;;;;;;;20.41;46.32;100521.22;5054437;28;20031;-78
2022/05/25 08:50:25;;;;;;;4.25;2.38;;;;;;;20.25;46.06;100528.22;5048889;28;20078;-78
2022/05/25 08:52:55;;;;;;;4.53;1.98;;;;;;;20.12;46.52;100526.13;5048360;28;20033;-77
2022/05/25 08:55:50;;;;;;;6.38;1.98;;;;;;;20.13;47.27;100527.00;5031621;28;20036;-77
2022/05/25 08:58:18;;;;;;;6.32;1.90;;;;;;;20.26;47.89;100521.94;5053851;28;20115;-77
2022/05/25 09:00:46;;;;;;;3.60;1.85;;;;;;;20.38;47.29;100515.97;5049481;28;20037;-78
2022/05/25 09:03:20;;;;;;;3.45;1.60;;;;;;;20.58;46.98;100513.25;5047886;28;20026;-78
2022/05/25 09:05:55;;;;;;;6.72;1.90;;;;;;;20.54;46.69;100516.16;5048769;28;20044;-77
2022/05/25 09:08:34;;;;;;;6.93;2.08;;;;;;;20.62;45.73;100522.06;5046705;28;20121;-78
2022/05/25 09:11:21;;;;;;;4.95;1.55;;;;;;;20.69;45.84;100523.47;5048779;28;20037;-78
2022/05/25 09:14:10;;;;;;;2.83;1.60;;;;;;;20.69;45.40;100525.28;5054063;28;20113;-77
2022/05/25 09:16:37;;;;;;;3.95;2.05;;;;;;;20.45;45.49;100525.47;5052598;28;20039;-78
2022/05/25 09:19:17;;;;;;;6.57;2.05;;;;;;;20.39;45.71;100536.50;5052867;28;20047;-78
2022/05/25 09:21:56;;;;;;;4.18;1.50;;;;;;;20.35;45.72;100540.25;5052855;28;20029;-78
2022/05/25 09:24:23;;;;;;;6.32;1.25;;;;;;;20.39;46.14;100530.28;5050495;28;20029;-78
2022/05/25 09:26:49;;;;;;;3.53;1.35;;;;;;;20.35;45.96;100529.53;5032533;28;20037;-77
2022/05/25 09:29:15;;;;;;;6.65;2.00;;;;;;;20.64;45.78;100530.00;5037299;28;20067;-78
2022/05/25 09:31:59;;;;;;;2.97;1.17;;;;;;;20.54;45.11;100530.47;5044737;28;20038;-78
2022/05/25 09:34:41;;;;;;;5.30;1.10;;;;;;;20.53;44.46;100531.34;5032837;28;20036;-78
2022/05/25 09:37:35;;;;;;;2.25;1.00;;;;;;;20.67;44.55;100535.22;5054480;28;20028;-78
2022/05/25 09:40:03;;;;;;;3.88;1.13;;;;;;;20.78;44.55;100536.44;5052384;28;20111;-78
2022/05/25 09:42:34;;;;;;;2.13;1.10;;;;;;;20.66;44.36;100534.34;5031192;28;20041;-77
2022/05/25 09:45:00;;;;;;;5.13;1.10;;;;;;;20.43;43.36;100535.41;5052745;28;20028;-77
2022/05/25 09:47:41;;;;;;;3.55;0.90;;;;;;;20.37;43.21;100546.41;5046884;28;20072;-78
2022/05/25 09:50:12;;;;;;;4.45;0.98;;;;;;;20.05;44.02;100547.91;5044478;28;20041;-77
2022/05/25 09:52:43;;;;;;;2.45;0.90;;;;;;;19.97;44.54;100550.94;5035973;28;20037;-78
2022/05/25 09:55:22;;;;;;;3.58;1.08;;;;;;;20.19;44.34;100541.91;5051297;28;20434;-78
2022/05/25 09:57:58;;;;;;;5.07;1.60;;;;;;;20.55;43.80;100529.50;5049283;28;20098;-77
2022/05/25 10:00:32;;;;;;;4.35;1.33;;;;;;;20.73;44.25;100533.13;5042349;28;20055;-78
2022/05/25 10:03:01;;;;;;;3.60;0.98;;;;;;;20.58;43.97;100532.03;5050843;28;20041;-78
2022/05/25 10:05:34;;;;;;;2.45;0.98;;;;;;;20.29;43.78;100532.50;5030700;28;20438;-78
2022/05/25 10:08:36;;;;;;;3.92;1.58;;;;;;;20.19;43.43;100540.09;5027795;28;20045;-77
2022/05/25 10:11:27;;;;;;;2.33;0.83;;;;;;;20.13;42.15;100540.38;5047102;28;20040;-77
2022/05/25 10:13:56;;;;;;;2.53;0.68;;;;;;;20.23;42.05;100528.31;5048868;28;20028;-77
2022/05/25 10:16:26;;;;;;;3.55;0.70;;;;;;;20.20;42.53;100525.78;5042965;28;20033;-78
2022/05/25 10:18:52;;;;;;;4.88;0.70;;;;;;;20.17;43.07;100533.94;5052313;28;20041;-77
2022/05/25 10:21:29;;;;;;;2.85;1.00;;;;;;;20.27;43.39;100521.84;5051285;28;20621;-78
2022/05/25 10:23:57;;;;;;;2.35;0.93;;;;;;;20.11;43.01;100531.53;5031422;28;20029;-78
2022/05/25 10:26:38;;;;;;;4.28;1.10;;;;;;;20.28;42.83;100520.06;5051084;28;20120;-79
2022/05/25 10:29:09;;;;;;;2.83;1.25;;;;;;;20.26;42.70;100524.63;5010779;28;20050;-77
2022/05/25 10:37:23;;;;;;;2.88;0.85;;;;;;;20.95;41.70;100524.88;5024007;28;20062;-77
2022/05/25 10:39:54;;;;;;;3.28;1.00;;;;;;;20.87;41.81;100513.66;4988353;28;20046;-77
2022/05/25 10:42:24;;;;;;;3.83;0.83;;;;;;;21.06;41.82;100507.38;4987677;28;20042;-76
2022/05/25 10:44:52;;;;;;;2.38;0.70;;;;;;;21.14;38.96;100507.88;5020155;28;20066;-76
2022/05/25 10:47:36;;;;;;;1.45;0.40;;;;;;;21.42;39.29;100507.38;4991014;28;20042;-77
2022/05/25 10:50:07;;;;;;;4.47;1.15;;;;;;;21.84;40.32;100503.38;4996014;28;20030;-76
2022/05/25 10:52:45;;;;;;;5.50;1.30;;;;;;;22.34;39.58;100496.22;4994637;28;20074;-77
2022/05/25 10:55:11;;;;;;;4.13;1.25;;;;;;;22.18;39.64;100507.78;4996208;28;20089;-79
2022/05/25 10:57:44;;;;;;;3.50;0.90;;;;;;;21.97;38.97;100500.91;5001097;28;20055;-78
2022/05/25 11:00:13;;;;;;;2.55;0.95;;;;;;;21.91;38.69;100504.78;4985834;28;20096;-80
2022/05/25 11:03:06;;;;;;;2.97;1.10;;;;;;;22.59;37.53;100495.72;5006951;28;20026;-81
2022/05/25 11:05:52;;;;;;;3.60;1.10;;;;;;;23.20;36.89;100497.56;4993680;28;20133;-80
2022/05/25 11:08:46;;;;;;;3.30;1.00;;;;;;;23.27;35.30;100492.72;4992876;28;20642;-80
2022/05/25 11:11:31;;;;;;;3.45;0.90;;;;;;;23.57;34.98;100487.28;4992107;28;20073;-81
2022/05/25 11:14:15;;;;;;;1.70;0.60;;;;;;;24.00;34.38;100482.84;4992002;28;20077;-81
2022/05/25 11:17:06;;;;;;;3.33;0.77;;;;;;;23.98;34.62;100490.16;5002734;28;20060;-81
2022/05/25 11:19:53;;;;;;;1.67;0.65;;;;;;;24.27;34.41;100484.75;4989531;28;20045;-80
2022/05/25 11:22:41;;;;;;;3.03;0.57;;;;;;;23.97;33.32;100485.72;4984675;28;20041;-81
2022/05/25 11:25:34;;;;;;;2.28;0.77;;;;;;;23.91;33.87;100482.53;4989295;28;20041;-81
2022/05/25 11:28:17;;;;;;;2.47;0.80;;;;;;;24.15;33.86;100469.34;5021459;28;20405;-81
2022/05/25 11:31:21;;;;;;;1.77;0.60;;;;;;;24.18;33.25;100471.84;4984993;28;20058;-81
2022/05/25 11:34:15;;;;;;;1.27;0.60;;;;;;;23.57;33.21;100474.66;4988102;28;20041;-81
2022/05/25 11:37:08;;;;;;;3.67;0.75;;;;;;;23.10;34.39;100481.09;4988796;28;20050;-80
2022/05/25 11:39:39;;;;;;;3.95;0.98;;;;;;;23.60;33.53;100469.09;5016950;28;20035;-81
2022/05/25 11:42:11;;;;;;;3.20;1.02;;;;;;;24.32;32.97;100466.44;4989616;28;20093;-81
2022/05/25 11:45:06;;;;;;;4.82;2.03;;;;;;;25.04;31.34;100460.81;4992192;28;20445;-81
2022/05/25 11:47:58;;;;;;;2.95;1.27;;;;;;;24.79;30.94;100458.94;4988834;28;20127;-81
2022/05/25 11:50:42;;;;;;;1.90;0.77;;;;;;;24.56;31.35;100460.44;4990253;28;20030;-81
2022/05/25 11:53:15;;;;;;;1.38;0.57;;;;;;;25.16;31.90;100456.47;4986892;28;20034;-81
2022/05/25 11:55:57;;;;;;;1.40;0.52;;;;;;;24.41;30.68;100465.81;5019555;28;20038;-81
2022/05/25 11:58:31;;;;;;;1.42;0.70;;;;;;;24.20;30.53;100451.03;4988736;28;20042;-81
2022/05/25 12:01:13;;;;;;;2.40;1.08;;;;;;;24.30;31.28;100457.56;4987417;28;20034;-81
2022/05/25 12:03:50;;;;;;;2.33;0.65;;;;;;;24.39;30.92;100448.91;4988865;28;20488;-81
2022/05/25 12:06:41;;;;;;;3.13;0.70;;;;;;;24.24;30.83;100449.88;4991037;28;20044;-81
2022/05/25 12:09:26;;;;;;;1.67;0.60;;;;;;;23.95;31.85;100460.69;4991264;28;20488;-81
2022/05/25 12:12:09;;;;;;;3.92;0.90;;;;;;;23.45;32.61;100464.66;5019184;28;20039;-80